Flight Track Log - Related Links

Times and Time Zones

All times are in EDT time to prevent confusion due to time zone crossing. See the N411AJ flight status page for this flight to view local times or setup timezone preferences in your user account.

Time Position Orientation Groundspeed Altitude Reporting Facility
EDT Latitude Longitude Course Direction KTS MPH feet Rate Location/Type
Wed 06:07:35 PM 38.8619 -97.5947 353° North 274 315 10,400  Level Kansas City Center
Wed 06:08:36 PM 38.9344 -97.6600 325° Northwest 303 349 14,400 3,552 Climbing Kansas City Center
Wed 06:09:40 PM 38.9739 -97.7561 298° West 336 387 17,800 3,968 Climbing Kansas City Center
Wed 06:10:00 PM 38.5419 -98.5221 264° West  Level Estimated
Wed 06:10:40 PM 38.9836 -97.8886 275° West 336 387 22,600  Level Kansas City Center
Wed 06:11:00 PM 38.5059 -98.6458 250° West  Level Estimated
Wed 06:11:44 PM 38.9856 -98.0175 271° West 357 411 23,400  Level Kansas City Center
Wed 06:12:45 PM 38.9639 -98.1644 259° West 410 472 25,000 1,770 Climbing Kansas City Center
Wed 06:13:46 PM 38.9906 -98.3189 283° West 444 511 27,000 1,920 Climbing Kansas City Center
Wed 06:14:50 PM 39.0469 -98.4603 297° West 448 516 29,000 2,032 Climbing Kansas City Center
Wed 06:15:50 PM 39.0908 -98.6119 290° West 452 520 31,200 2,516 Climbing Kansas City Center
Wed 06:16:54 PM 39.1494 -98.7811 294° West 433 498 34,200 2,256 Climbing Kansas City Center
Wed 06:17:55 PM 39.2061 -98.9131 299° West 423 487 35,900 1,694 Climbing Kansas City Center
Wed 06:18:58 PM 39.2917 -99.0211 316° Northwest 428 493 37,700 1,392 Climbing Kansas City Center
Wed 06:20:00 PM 39.3539 -99.1469 303° West 422 486 38,800 1,010 Climbing Kansas City Center
Wed 06:20:39 PM 39.3600 -99.2269 276° West 408 470 39,400 1,053 Climbing Denver Center
Wed 06:21:54 PM 39.2997 -99.4278 249° West 414 476 40,800 1,095 Climbing Denver Center
Wed 06:22:56 PM 39.2575 -99.5581 247° West 412 474 41,900 1,113 Climbing Denver Center
Wed 06:23:58 PM 39.2078 -99.7158 248° West 403 464 43,100 629 Climbing Denver Center
Wed 06:25:00 PM 39.1669 -99.8389 247° West 394 453 43,200 48 Climbing Denver Center
Wed 06:26:02 PM 39.1267 -99.9642 248° West 395 455 43,200  Level Denver Center
Wed 06:27:04 PM 39.0825 -100.1006 247° West 392 451 43,200  Level Denver Center
Wed 06:28:06 PM 39.0358 -100.2439 247° West 389 448 43,200  Level Denver Center
Wed 06:29:08 PM 38.9947 -100.3675 247° West 391 450 43,200  Level Denver Center
Wed 06:30:10 PM 38.9511 -100.4961 246° West 392 451 43,200  Level Denver Center
Wed 06:31:12 PM 38.9044 -100.6378 247° West 387 445 43,200  Level Denver Center
Wed 06:32:14 PM 38.8639 -100.7608 247° West 390 449 43,200  Level Denver Center
Wed 06:33:16 PM 38.8167 -100.9025 247° West 388 447 43,200  Level Denver Center
Wed 06:34:18 PM 38.7758 -101.0222 246° West 386 444 43,200  Level Denver Center
Wed 06:35:20 PM 38.7286 -101.1611 246° West 382 440 43,200  Level Denver Center
Wed 06:36:22 PM 38.6878 -101.2811 246° West 382 440 43,200  Level Denver Center
Wed 06:37:24 PM 38.6397 -101.4203 246° West 384 442 43,200 -97 Level Denver Center
Wed 06:38:26 PM 38.5994 -101.5403 247° West 386 444 43,000 -97 Descending Denver Center
Wed 06:39:28 PM 38.5514 -101.6797 246° West 386 444 43,000  Level Denver Center
Wed 06:40:30 PM 38.5106 -101.7989 246° West 384 442 43,000  Level Denver Center
Wed 06:41:32 PM 38.4631 -101.9347 246° West 379 436 43,000  Level Denver Center
Wed 06:42:34 PM 38.4214 -102.0539 246° West 383 441 43,000  Level Denver Center
Wed 06:43:36 PM 38.3744 -102.1897 246° West 378 435 43,000  Level Denver Center
Wed 06:44:38 PM 38.3314 -102.3078 245° Southwest 384 442 43,000  Level Denver Center
Wed 06:45:40 PM 38.2836 -102.4436 246° West 378 435 43,000  Level Denver Center
Wed 06:46:42 PM 38.2442 -102.5581 246° West 373 429 43,000  Level Denver Center
Wed 06:47:44 PM 38.1947 -102.6933 245° Southwest 378 435 43,000  Level Denver Center
Wed 06:48:46 PM 38.1644 -102.8131 252° West 375 432 43,000  Level Denver Center
Wed 06:49:48 PM 38.1286 -102.9533 252° West 374 430 43,000  Level Denver Center
Wed 06:50:50 PM 38.0986 -103.0736 252° West 375 432 43,000  Level Denver Center
Wed 06:51:52 PM 38.0625 -103.2103 251° West 375 432 43,000  Level Denver Center
Wed 06:52:54 PM 38.0358 -103.3106 251° West 376 433 43,000  Level Denver Center
Wed 06:53:56 PM 37.9947 -103.4708 252° West 376 433 43,000  Level Denver Center
Wed 06:54:58 PM 37.9622 -103.5911 251° West 378 435 43,000  Level Denver Center
Wed 06:56:00 PM 37.9250 -103.7331 252° West 381 438 43,000  Level Denver Center
Wed 06:57:02 PM 37.8942 -103.8539 252° West 381 438 43,000  Level Denver Center
Wed 06:58:16 PM 37.8611 -103.9744 251° West 381 438 43,000  Level Denver Center
Wed 06:59:18 PM 37.8172 -104.1347 251° West 382 440 43,000  Level Denver Center
Wed 07:00:20 PM 37.7789 -104.2756 251° West 383 441 43,000  Level Denver Center
Wed 07:01:22 PM 37.7467 -104.3953 251° West 380 437 43,000  Level Denver Center
Wed 07:02:24 PM 37.7092 -104.5344 251° West 377 434 43,000  Level Denver Center
Wed 07:03:26 PM 37.6753 -104.6544 250° West 379 436 43,000  Level Denver Center
Wed 07:04:28 PM 37.6367 -104.7953 251° West 382 440 43,000  Level Denver Center
Wed 07:05:30 PM 37.6031 -104.9164 251° West 384 442 43,000  Level Denver Center
Wed 07:06:45 PM 37.5578 -105.0783 251° West 386 444 43,000  Level Denver Center
Wed 07:07:47 PM 37.5197 -105.2139 251° West 386 444 43,000  Level Denver Center
Wed 07:08:49 PM 37.4864 -105.3358 251° West 386 444 43,000  Level Denver Center
Wed 07:09:51 PM 37.4447 -105.4764 250° West 386 444 43,000  Level Denver Center
Wed 07:10:53 PM 37.4100 -105.5981 250° West 387 445 43,000  Level Denver Center
Wed 07:11:55 PM 37.3708 -105.7386 251° West 384 442 43,000  Level Denver Center
Wed 07:12:57 PM 37.3367 -105.8581 250° West 381 438 43,000  Level Denver Center
Wed 07:13:59 PM 37.3006 -106.0006 252° West 383 441 43,000  Level Denver Center
Wed 07:15:01 PM 37.2703 -106.1233 253° West 385 443 43,000  Level Denver Center
Wed 07:16:03 PM 37.2350 -106.2644 253° West 381 438 43,000  Level Denver Center
Wed 07:17:05 PM 37.2042 -106.3853 252° West 380 437 43,000  Level Denver Center
Wed 07:18:07 PM 37.1667 -106.5272 252° West 382 440 43,000  Level Denver Center
Wed 07:19:09 PM 37.1356 -106.6464 252° West 378 435 43,000  Level Denver Center
Wed 07:20:11 PM 37.1000 -106.7889 253° West 382 440 43,000  Level Denver Center
Wed 07:21:13 PM 37.0675 -106.9078 251° West 377 434 43,000  Level Denver Center
Wed 07:22:16 PM 37.0361 -107.0269 252° West 377 434 43,000  Level Denver Center
Wed 07:23:30 PM 37.0000 -107.1653 252° West 376 433 43,000  Level Denver Center
Wed 07:24:32 PM 36.9575 -107.3258 252° West 382 440 43,000  Level Denver Center
Wed 07:25:34 PM 36.9244 -107.4461 251° West 383 441 43,000  Level Denver Center
Wed 07:26:36 PM 36.8878 -107.5900 252° West 387 445 43,000  Level Denver Center
Wed 07:27:38 PM 36.8539 -107.7111 251° West 387 445 43,000  Level Denver Center
Wed 07:28:40 PM 36.8150 -107.8536 251° West 388 447 43,000  Level Denver Center
Wed 07:29:42 PM 36.7806 -107.9778 251° West 393 452 43,000  Level Denver Center
Wed 07:30:44 PM 36.7406 -108.1242 251° West 398 458 43,000  Level Denver Center
Wed 07:31:46 PM 36.6883 -108.2381 240° Southwest 399 459 43,000  Level Denver Center
Wed 07:32:49 PM 36.6306 -108.3747 242° Southwest 397 457 43,000  Level Denver Center
Wed 07:33:51 PM 36.5808 -108.4917 242° Southwest 400 460 43,000  Level Denver Center
Wed 07:35:05 PM 36.5147 -108.6461 242° Southwest 398 458 43,000  Level Denver Center
Wed 07:36:07 PM 36.4650 -108.7617 242° Southwest 398 458 43,000  Level Denver Center
Wed 07:37:09 PM 36.4078 -108.8947 242° Southwest 394 453 43,000  Level Denver Center
Wed 07:38:11 PM 36.3589 -109.0075 242° Southwest 392 451 43,000  Level Denver Center
Wed 07:39:13 PM 36.3019 -109.1369 241° Southwest 387 445 43,000  Level Denver Center
Wed 07:40:27 PM 36.2522 -109.2478 241° Southwest 387 445 43,000  Level Denver Center
Wed 07:41:30 PM 36.1867 -109.3956 241° Southwest 386 444 43,000  Level Denver Center
Wed 07:42:32 PM 36.1294 -109.5261 242° Southwest 387 445 43,000  Level Denver Center
Wed 07:43:34 PM 36.0794 -109.6369 241° Southwest 387 445 43,000  Level Denver Center
Wed 07:44:36 PM 36.0217 -109.7681 241° Southwest 388 447 43,000 -387 Level Denver Center
Wed 07:45:38 PM 35.9722 -109.8789 241° Southwest 387 445 42,200 -1,548 Descending Denver Center
Wed 07:46:40 PM 35.9136 -110.0103 241° Southwest 390 449 39,800 -2,081 Descending Denver Center
Wed 07:47:42 PM 35.8622 -110.1231 241° Southwest 393 452 37,900 -2,129 Descending Denver Center
Wed 07:48:44 PM 35.8006 -110.2556 240° Southwest 396 456 35,400 -1,887 Descending Denver Center
Wed 07:49:46 PM 35.7492 -110.3728 242° Southwest 402 463 34,000 -677 Descending Denver Center
Wed 07:50:48 PM 35.6967 -110.4867 240° Southwest 402 463 34,000 -145 Level Denver Center
Wed 07:51:50 PM 35.6353 -110.6214 241° Southwest 403 464 33,700 -726 Descending Denver Center
Wed 07:52:52 PM 35.5814 -110.7383 240° Southwest 407 468 32,500 -1,403 Descending Denver Center
Wed 07:53:54 PM 35.5172 -110.8764 240° Southwest 413 475 30,800 -1,279 Descending Denver Center
Wed 07:55:08 PM 35.4489 -111.0156 239° Southwest 424 488 29,600 -1,156 Descending Albuquerque Center
Wed 07:56:09 PM 35.3347 -111.1114 214° Southwest 441 507 28,200 -780 Descending Albuquerque Center
Wed 07:57:11 PM 35.2303 -111.1906 212° Southwest 443 510 28,000 -96 Descending Albuquerque Center
Wed 07:58:14 PM 35.1236 -111.2669 210° Southwest 445 512 28,000 -244 Level Albuquerque Center
Wed 07:59:14 PM 35.0164 -111.3436 210° Southwest 446 513 27,500 -1,388 Descending Albuquerque Center
Wed 08:00:15 PM 34.9111 -111.4194 211° Southwest 442 509 25,200 -2,081 Descending Albuquerque Center
Wed 08:01:18 PM 34.8022 -111.4908 208° Southwest 445 512 23,200 -1,839 Descending Albuquerque Center
Wed 08:02:19 PM 34.6928 -111.5561 206° Southwest 441 507 21,400 -1,869 Descending Albuquerque Center
Wed 08:03:20 PM 34.5667 -111.6319 206° Southwest 427 491 19,400 -1,839 Descending Albuquerque Center
Wed 08:04:23 PM 34.4650 -111.6936 207° Southwest 415 478 17,600 -1,694 Descending Albuquerque Center
Wed 08:05:24 PM 34.3639 -111.7536 206° Southwest 409 471 15,900 -1,721 Descending Albuquerque Center
Wed 08:06:25 PM 34.2642 -111.8031 202° Southwest 398 458 14,100 -1,951 Descending Albuquerque Center
Wed 08:07:27 PM 34.1586 -111.8189 187° South 385 443 11,900 -1,824 Descending Albuquerque Center
Wed 08:08:30 PM 34.0694 -111.8333 188° South 326 375 10,300 -1,742 Descending Albuquerque Center
Wed 08:09:31 PM 33.9775 -111.8475 187° South 291 335 8,300 -1,721 Descending Albuquerque Center
Wed 08:10:32 PM 33.9044 -111.8619 189° South 276 318 6,800 -1,475 Descending Albuquerque Center
Wed 08:11:33 PM 33.8339 -111.8739 188° South 262 302 5,300 -1,248 Descending Albuquerque Center
Wed 08:12:37 PM 33.7647 -111.8794 184° South 252 290 4,200 -823 Descending Albuquerque Center
Wed 08:13:37 PM 33.7033 -111.8756 177° South 225 259 3,600 -942 Descending Albuquerque Center
Wed 08:14:38 PM 33.6556 -111.8750 179° South 167 192 2,300 -976 Descending Albuquerque Center
Wed 08:15:40 PM 33.6297 -111.9053 224° Southwest 141 162 1,600 -677 Descending Albuquerque Center
Wed 08:17:00 PM 33.6229 -111.9105 North  Level Estimated

Login

Don't have an account? Register now (free) for customized features, flight alerts, and more!